createdAt,value
2018-06-13T00:00:21.304Z,13.25
2018-06-13T00:01:21.296Z,13.27
2018-06-13T00:02:21.287Z,13.23
2018-06-13T00:03:21.280Z,13.16
2018-06-13T00:04:21.273Z,13.15
2018-06-13T00:05:21.270Z,13.12
2018-06-13T00:06:21.260Z,13.11
2018-06-13T00:07:21.250Z,13.00
2018-06-13T00:08:21.242Z,13.01
2018-06-13T00:09:21.241Z,13.01
2018-06-13T00:10:21.226Z,12.87
2018-06-13T00:11:21.219Z,12.93
2018-06-13T00:12:21.413Z,12.82
2018-06-13T00:13:21.206Z,12.80
2018-06-13T00:14:21.196Z,12.86
2018-06-13T00:15:21.188Z,12.90
2018-06-13T00:16:21.181Z,12.80
2018-06-13T00:17:21.172Z,12.86
2018-06-13T00:18:21.163Z,12.82
2018-06-13T00:19:21.156Z,12.75
2018-06-13T00:20:21.148Z,12.73
2018-06-13T00:21:21.141Z,12.72
2018-06-13T00:22:21.133Z,12.64
2018-06-13T00:23:21.125Z,12.67
2018-06-13T00:24:21.119Z,12.58
2018-06-13T00:25:21.311Z,12.57
2018-06-13T00:26:21.101Z,12.50
2018-06-13T00:27:21.093Z,12.55
2018-06-13T00:29:21.077Z,12.57
2018-06-13T00:30:21.069Z,12.50
2018-06-13T00:31:21.061Z,12.53
2018-06-13T00:32:21.053Z,12.45
2018-06-13T00:33:21.045Z,12.53
2018-06-13T00:34:21.036Z,12.57
2018-06-13T00:35:21.028Z,12.42
2018-06-13T00:36:21.021Z,12.53
2018-06-13T00:37:21.017Z,12.42
2018-06-13T00:38:21.007Z,12.29
2018-06-13T00:39:21.003Z,12.28
2018-06-13T00:40:20.989Z,12.32
2018-06-13T00:41:20.981Z,12.32
2018-06-13T00:42:20.971Z,12.28
2018-06-13T00:43:20.964Z,12.27
2018-06-13T00:44:20.955Z,12.24
2018-06-13T00:45:20.947Z,12.15
2018-06-13T00:46:20.980Z,12.27
2018-06-13T00:47:20.934Z,12.28
2018-06-13T00:48:20.923Z,12.24
2018-06-13T00:49:21.118Z,12.25
2018-06-13T00:50:20.906Z,12.24
2018-06-13T00:51:20.898Z,12.22
2018-06-13T00:52:20.890Z,12.24
2018-06-13T00:53:20.885Z,12.27
2018-06-13T00:54:20.875Z,12.20
2018-06-13T00:55:20.865Z,12.22
2018-06-13T00:56:20.857Z,12.18
2018-06-13T00:57:20.850Z,12.21
2018-06-13T00:58:20.841Z,12.21
2018-06-13T00:59:20.833Z,12.17
2018-06-13T01:00:20.825Z,12.17
2018-06-13T01:01:20.817Z,12.20
2018-06-13T01:02:20.807Z,12.24
2018-06-13T01:03:20.800Z,12.20
2018-06-13T01:04:20.791Z,12.18
2018-06-13T01:05:20.786Z,12.22
2018-06-13T01:06:20.774Z,12.24
2018-06-13T01:07:20.767Z,12.24
2018-06-13T01:08:20.759Z,12.20
2018-06-13T01:09:20.751Z,12.27
2018-06-13T01:10:20.741Z,12.21
2018-06-13T01:11:20.734Z,12.22
2018-06-13T01:12:20.725Z,12.18
2018-06-13T01:13:20.717Z,12.15
2018-06-13T01:14:20.710Z,12.15
2018-06-13T01:15:20.700Z,12.15
2018-06-13T01:16:20.692Z,12.21
2018-06-13T01:17:20.686Z,12.20
2018-06-13T01:18:20.674Z,12.28
2018-06-13T01:19:20.666Z,12.28
2018-06-13T01:20:20.657Z,12.22
2018-06-13T01:21:20.649Z,12.27
2018-06-13T01:22:20.640Z,12.32
2018-06-13T01:23:20.633Z,12.29
2018-06-13T01:24:20.624Z,12.40
2018-06-13T01:25:20.616Z,12.45
2018-06-13T01:26:20.607Z,12.43
2018-06-13T01:27:20.598Z,12.35
2018-06-13T01:28:20.591Z,12.46
2018-06-13T01:29:20.841Z,12.46
2018-06-13T01:30:20.574Z,12.57
2018-06-13T01:31:20.566Z,12.43
2018-06-13T01:32:20.558Z,12.42
2018-06-13T01:33:20.550Z,12.49
2018-06-13T01:34:20.541Z,12.47
2018-06-13T01:35:20.535Z,12.46
2018-06-13T01:36:20.525Z,12.50
2018-06-13T01:37:20.719Z,12.50
2018-06-13T01:38:20.509Z,12.50
2018-06-13T01:39:20.500Z,12.58
2018-06-13T01:40:20.492Z,12.55
2018-06-13T01:41:20.484Z,12.60
2018-06-13T01:42:20.476Z,12.62
2018-06-13T01:43:20.467Z,12.64
2018-06-13T01:44:20.461Z,12.76
2018-06-13T01:45:20.451Z,12.79
2018-06-13T01:46:20.442Z,12.73
2018-06-13T01:47:20.435Z,12.75
2018-06-13T01:48:20.427Z,12.68
2018-06-13T01:49:20.419Z,12.79
2018-06-13T01:50:20.417Z,12.73
2018-06-13T01:51:20.403Z,12.80
2018-06-13T01:52:20.396Z,12.78
2018-06-13T01:53:20.389Z,12.80
2018-06-13T01:54:20.382Z,12.80
2018-06-13T01:55:20.371Z,12.87
2018-06-13T01:56:20.364Z,12.87
2018-06-13T01:57:20.359Z,12.86
2018-06-13T01:58:20.347Z,12.86
2018-06-13T01:59:20.340Z,12.82
2018-06-13T02:00:20.335Z,12.86
2018-06-13T02:01:20.325Z,12.83
2018-06-13T02:02:20.318Z,12.85
2018-06-13T02:03:20.308Z,12.86
2018-06-13T02:04:20.301Z,12.86
2018-06-13T02:05:20.295Z,12.76
2018-06-13T02:06:20.290Z,12.90
2018-06-13T02:07:20.277Z,12.85
2018-06-13T02:08:20.269Z,12.85
2018-06-13T02:09:20.261Z,12.82
2018-06-13T02:10:20.253Z,12.82
2018-06-13T02:11:20.249Z,12.83
2018-06-13T02:12:20.238Z,12.79
2018-06-13T02:13:20.230Z,12.79
2018-06-13T02:14:20.221Z,12.85
2018-06-13T02:15:20.215Z,12.79
2018-06-13T02:16:20.206Z,12.86
2018-06-13T02:17:20.200Z,12.76
2018-06-13T02:18:20.189Z,12.86
2018-06-13T02:19:20.182Z,12.85
2018-06-13T02:20:20.174Z,12.85
2018-06-13T02:21:20.169Z,12.75
2018-06-13T02:22:20.157Z,12.68
2018-06-13T02:23:20.150Z,12.64
2018-06-13T02:24:20.142Z,12.76
2018-06-13T02:25:20.134Z,12.70
2018-06-13T02:26:20.129Z,12.67
2018-06-13T02:27:20.179Z,12.64
2018-06-13T02:28:20.110Z,12.64
2018-06-13T02:29:20.109Z,12.65
2018-06-13T02:30:20.094Z,12.65
2018-06-13T02:31:20.086Z,12.64
2018-06-13T02:32:20.078Z,12.57
2018-06-13T02:33:20.070Z,12.64
2018-06-13T02:34:20.061Z,12.64
2018-06-13T02:35:20.054Z,12.68
2018-06-13T02:36:20.046Z,12.65
2018-06-13T02:37:20.041Z,12.64
2018-06-13T02:38:20.030Z,12.64
2018-06-13T02:39:20.023Z,12.60
2018-06-13T02:40:20.022Z,12.58
2018-06-13T02:41:20.009Z,12.67
2018-06-13T02:42:19.997Z,12.50
2018-06-13T02:43:19.989Z,12.57
2018-06-13T02:44:19.982Z,12.54
2018-06-13T02:45:19.974Z,12.57
2018-06-13T02:46:19.965Z,12.55
2018-06-13T02:47:19.957Z,12.50
2018-06-13T02:48:19.952Z,12.57
2018-06-13T02:49:19.941Z,12.55
2018-06-13T02:50:19.935Z,12.49
2018-06-13T02:51:19.925Z,12.47
2018-06-13T02:52:19.918Z,12.46
2018-06-13T02:53:19.910Z,12.47
2018-06-13T02:54:19.903Z,12.49
2018-06-13T02:55:19.894Z,12.53
2018-06-13T02:56:19.884Z,12.42
2018-06-13T02:57:19.877Z,12.57
2018-06-13T02:58:19.867Z,12.42
2018-06-13T02:59:19.860Z,12.53
2018-06-13T03:00:19.852Z,12.60
2018-06-13T03:01:19.844Z,12.50
2018-06-13T03:02:19.835Z,12.57
2018-06-13T03:03:19.827Z,12.54
2018-06-13T03:04:19.819Z,12.57
2018-06-13T03:05:19.811Z,12.54
2018-06-13T03:06:19.802Z,12.62
2018-06-13T03:07:19.795Z,12.67
2018-06-13T03:08:19.787Z,12.65
2018-06-13T03:09:19.781Z,12.58
2018-06-13T03:10:19.771Z,12.64
2018-06-13T03:11:19.762Z,12.68
2018-06-13T03:12:19.755Z,12.65
2018-06-13T03:13:19.747Z,12.64
2018-06-13T03:14:19.744Z,12.62
2018-06-13T03:15:19.730Z,12.64
2018-06-13T03:16:19.724Z,12.68
2018-06-13T03:17:19.715Z,12.67
2018-06-13T03:18:19.711Z,12.65
2018-06-13T03:19:19.698Z,12.68
2018-06-13T03:20:19.690Z,12.64
2018-06-13T03:21:19.682Z,12.70
2018-06-13T03:22:19.673Z,12.67
2018-06-13T03:23:19.665Z,12.68
2018-06-13T03:24:19.657Z,12.68
2018-06-13T03:25:19.650Z,12.79
2018-06-13T03:26:19.644Z,12.68
2018-06-13T03:27:19.633Z,12.73
2018-06-13T03:28:19.626Z,12.82
2018-06-13T03:29:19.617Z,12.68
2018-06-13T03:30:19.609Z,12.65
2018-06-13T03:31:19.605Z,12.67
2018-06-13T03:32:19.593Z,12.65
2018-06-13T03:33:19.588Z,12.68
2018-06-13T03:34:19.577Z,12.62
2018-06-13T03:35:19.568Z,12.57
2018-06-13T03:36:19.560Z,12.57
2018-06-13T03:37:19.553Z,12.60
2018-06-13T03:38:19.550Z,12.57
2018-06-13T03:39:19.536Z,12.62
2018-06-13T03:40:19.528Z,12.64
2018-06-13T03:41:19.520Z,12.61
2018-06-13T03:42:19.512Z,12.55
2018-06-13T03:43:19.504Z,12.64
2018-06-13T03:44:19.497Z,12.64
2018-06-13T03:45:19.492Z,12.58
2018-06-13T03:46:19.479Z,12.62
2018-06-13T03:47:19.472Z,12.67
2018-06-13T03:48:19.464Z,12.61
2018-06-13T03:49:19.456Z,12.62
2018-06-13T03:50:19.450Z,12.64
2018-06-13T03:51:19.440Z,12.65
2018-06-13T03:52:19.435Z,12.68
2018-06-13T03:53:19.424Z,12.62
2018-06-13T03:54:19.420Z,12.65
2018-06-13T03:55:19.408Z,12.67
2018-06-13T03:56:19.404Z,12.67
2018-06-13T03:57:19.395Z,12.65
2018-06-13T03:58:19.389Z,12.64
2018-06-13T03:59:19.379Z,12.75
2018-06-13T04:00:19.372Z,12.65
2018-06-13T04:01:19.369Z,12.73
2018-06-13T04:02:19.356Z,12.67
2018-06-13T04:03:19.347Z,12.67
2018-06-13T04:04:19.337Z,12.68
2018-06-13T04:05:19.328Z,12.79
2018-06-13T04:06:19.324Z,12.67
2018-06-13T04:07:19.373Z,12.78
2018-06-13T04:08:19.303Z,12.72
2018-06-13T04:09:19.298Z,12.82
2018-06-13T04:10:19.287Z,12.79
2018-06-13T04:11:19.285Z,12.78
2018-06-13T04:12:19.274Z,12.78
2018-06-13T04:13:19.265Z,12.83
2018-06-13T04:14:19.255Z,12.78
2018-06-13T04:15:19.247Z,12.85
2018-06-13T04:16:19.243Z,12.85
2018-06-13T04:17:19.232Z,12.83
2018-06-13T04:18:19.228Z,12.80
2018-06-13T04:19:19.218Z,12.80
2018-06-13T04:20:19.209Z,12.85
2018-06-13T04:21:19.201Z,12.87
2018-06-13T04:22:19.193Z,12.82
2018-06-13T04:23:19.184Z,12.85
2018-06-13T04:24:19.177Z,12.85
2018-06-13T04:25:19.169Z,12.87
2018-06-13T04:26:19.163Z,12.85
2018-06-13T04:27:19.153Z,12.85
2018-06-13T04:28:19.149Z,12.80
2018-06-13T04:29:19.145Z,12.85
2018-06-13T04:30:19.131Z,12.87
2018-06-13T04:31:19.122Z,12.85
2018-06-13T04:32:19.116Z,12.91
2018-06-13T04:33:19.112Z,12.83
2018-06-13T04:34:19.098Z,12.87
2018-06-13T04:35:19.091Z,12.86
2018-06-13T04:36:19.083Z,12.82
2018-06-13T04:37:19.079Z,12.93
2018-06-13T04:38:19.069Z,12.90
2018-06-13T04:39:19.059Z,12.94
2018-06-13T04:40:19.053Z,12.97
2018-06-13T04:41:19.049Z,12.90
2018-06-13T04:42:19.040Z,12.91
2018-06-13T04:43:19.028Z,13.01
2018-06-13T04:44:19.021Z,13.01
2018-06-13T04:45:19.013Z,13.00
2018-06-13T04:46:19.005Z,13.00
2018-06-13T04:47:18.998Z,13.04
2018-06-13T04:48:18.995Z,13.05
2018-06-13T04:49:18.985Z,13.04
2018-06-13T04:50:19.176Z,13.08
2018-06-13T04:51:18.968Z,13.11
2018-06-13T04:52:18.965Z,13.09
2018-06-13T04:53:19.156Z,13.04
2018-06-13T04:54:18.944Z,13.08
2018-06-13T04:55:18.936Z,13.09
2018-06-13T04:56:18.929Z,13.09
2018-06-13T04:57:18.922Z,13.08
2018-06-13T04:58:18.917Z,13.09
2018-06-13T04:59:18.906Z,13.01
2018-06-13T05:00:18.902Z,12.97
2018-06-13T05:01:18.891Z,13.01
2018-06-13T05:02:18.884Z,13.09
2018-06-13T05:03:18.876Z,13.12
2018-06-13T05:04:18.869Z,13.11
2018-06-13T05:05:18.862Z,13.13
2018-06-13T05:06:19.058Z,13.15
2018-06-13T05:07:18.845Z,13.16
2018-06-13T05:08:18.837Z,13.19
2018-06-13T05:10:18.822Z,13.25
2018-06-13T05:11:18.816Z,13.33
2018-06-13T05:12:18.808Z,13.27
2018-06-13T05:13:18.805Z,13.27
2018-06-13T05:14:18.793Z,13.37
2018-06-13T05:15:18.787Z,13.35
2018-06-13T05:17:18.776Z,13.39
2018-06-13T05:18:18.763Z,13.41
2018-06-13T05:19:18.756Z,13.44
2018-06-13T05:20:18.755Z,13.52
2018-06-13T05:21:18.748Z,13.42
2018-06-13T05:22:18.737Z,13.41
2018-06-13T05:23:18.727Z,13.39
2018-06-13T05:24:18.722Z,13.38
2018-06-13T05:25:18.719Z,13.41
2018-06-13T05:26:18.709Z,13.41
2018-06-13T05:27:18.701Z,13.35
2018-06-13T05:28:18.691Z,13.39
2018-06-13T05:29:18.889Z,13.38
2018-06-13T05:30:18.677Z,13.46
2018-06-13T05:31:18.669Z,13.44
2018-06-13T05:32:18.662Z,13.53
2018-06-13T05:33:18.655Z,13.52
2018-06-13T05:34:18.647Z,13.68
2018-06-13T05:35:18.647Z,13.62
2018-06-13T05:36:18.636Z,13.67
2018-06-13T05:37:18.627Z,13.72
2018-06-13T05:38:18.618Z,13.67
2018-06-13T05:39:18.614Z,13.68
2018-06-13T05:40:18.609Z,13.67
2018-06-13T05:41:18.600Z,13.67
2018-06-13T05:42:18.593Z,13.68
2018-06-13T05:43:18.588Z,13.78
2018-06-13T05:44:18.581Z,13.83
2018-06-13T05:45:18.571Z,13.79
2018-06-13T05:46:18.566Z,13.89
2018-06-13T05:47:18.559Z,13.75
2018-06-13T05:48:18.552Z,13.87
2018-06-13T05:49:18.543Z,13.89
2018-06-13T05:50:18.543Z,13.93
2018-06-13T05:51:18.535Z,13.95
2018-06-13T05:52:18.523Z,13.99
2018-06-13T05:53:18.516Z,14.08
2018-06-13T05:54:18.509Z,14.08
2018-06-13T05:55:18.506Z,14.22
2018-06-13T05:56:18.496Z,14.26
2018-06-13T05:57:18.894Z,14.23
2018-06-13T05:58:18.483Z,14.26
2018-06-13T05:59:18.480Z,14.29
2018-06-13T06:00:18.472Z,14.23
2018-06-13T06:01:18.466Z,14.29
2018-06-13T06:02:18.456Z,14.28
2018-06-13T06:03:18.456Z,14.32
2018-06-13T06:04:18.447Z,14.30
2018-06-13T06:05:18.440Z,14.28
2018-06-13T06:06:18.431Z,14.32
2018-06-13T06:07:18.429Z,14.32
2018-06-13T06:08:18.419Z,14.32
2018-06-13T06:09:18.412Z,14.30
2018-06-13T06:10:18.469Z,14.25
2018-06-13T06:11:18.403Z,14.41
2018-06-13T06:12:18.396Z,14.30
2018-06-13T06:13:18.387Z,14.47
2018-06-13T06:14:18.380Z,14.45
2018-06-13T06:15:18.374Z,14.44
2018-06-13T06:16:18.373Z,14.48
2018-06-13T06:17:18.362Z,14.50
2018-06-13T06:18:18.392Z,14.47
2018-06-13T06:19:18.350Z,14.47
2018-06-13T06:20:18.343Z,14.48
2018-06-13T06:21:18.345Z,14.53
2018-06-13T06:22:18.331Z,14.58
2018-06-13T06:23:18.325Z,14.51
2018-06-13T06:24:18.320Z,14.54
2018-06-13T06:25:18.317Z,14.62
2018-06-13T06:26:18.311Z,14.66
2018-06-13T06:27:18.302Z,14.77
2018-06-13T06:28:18.295Z,14.72
2018-06-13T06:29:18.297Z,14.72
2018-06-13T06:30:18.284Z,14.73
2018-06-13T06:31:18.286Z,14.82
2018-06-13T06:32:18.272Z,14.86
2018-06-13T06:33:18.273Z,14.94
2018-06-13T06:34:18.261Z,14.96
2018-06-13T06:35:18.256Z,15.02
2018-06-13T06:36:18.254Z,15.17
2018-06-13T06:37:18.244Z,15.19
2018-06-13T06:38:18.241Z,15.25
2018-06-13T06:39:18.240Z,15.22
2018-06-13T06:40:18.232Z,15.22
2018-06-13T06:41:18.223Z,15.27
2018-06-13T06:42:18.217Z,15.21
2018-06-13T06:43:18.212Z,15.24
2018-06-13T06:44:18.209Z,15.28
2018-06-13T06:45:18.204Z,15.27
2018-06-13T06:46:18.196Z,15.21
2018-06-13T06:47:18.196Z,15.24
2018-06-13T06:48:18.189Z,15.29
2018-06-13T06:49:18.184Z,15.24
2018-06-13T06:50:18.184Z,15.22
2018-06-13T06:51:18.375Z,15.22
2018-06-13T06:52:18.174Z,15.24
2018-06-13T06:53:18.165Z,15.19
2018-06-13T06:54:18.160Z,15.24
2018-06-13T06:55:18.150Z,15.28
2018-06-13T06:56:18.145Z,15.27
2018-06-13T06:57:18.139Z,15.18
2018-06-13T06:58:18.135Z,15.21
2018-06-13T06:59:18.132Z,15.27
2018-06-13T07:00:18.126Z,15.22
2018-06-13T07:01:18.121Z,15.35
2018-06-13T07:02:18.112Z,15.42
2018-06-13T07:03:18.109Z,15.46
2018-06-13T07:04:18.114Z,15.42
2018-06-13T07:05:18.098Z,15.22
2018-06-13T07:06:18.093Z,15.33
2018-06-13T07:07:18.090Z,15.39
2018-06-13T07:08:18.082Z,15.58
2018-06-13T07:09:18.082Z,15.58
2018-06-13T07:10:18.072Z,15.61
2018-06-13T07:11:18.067Z,15.47
2018-06-13T07:12:18.264Z,15.57
2018-06-13T07:13:18.115Z,15.55
2018-06-13T07:14:18.052Z,15.43
2018-06-13T07:15:18.046Z,15.39
2018-06-13T07:16:18.041Z,15.36
2018-06-13T07:17:18.037Z,15.31
2018-06-13T07:18:18.034Z,15.37
2018-06-13T07:19:18.028Z,15.37
2018-06-13T07:20:18.023Z,15.31
2018-06-13T07:21:18.019Z,15.25
2018-06-13T07:22:18.012Z,15.22
2018-06-13T07:24:17.999Z,15.07
2018-06-13T07:25:17.994Z,15.03
2018-06-13T07:26:17.987Z,14.99
2018-06-13T07:27:18.184Z,15.03
2018-06-13T07:28:17.976Z,14.96
2018-06-13T07:29:17.971Z,15.06
2018-06-13T07:30:17.968Z,14.94
2018-06-13T07:31:18.161Z,14.89
2018-06-13T07:32:17.954Z,14.99
2018-06-13T07:33:17.947Z,14.92
2018-06-13T07:34:17.941Z,14.92
2018-06-13T07:35:17.937Z,14.94
2018-06-13T07:36:17.933Z,14.92
2018-06-13T07:37:17.932Z,14.92
2018-06-13T07:38:17.917Z,14.96
2018-06-13T07:39:17.913Z,14.96
2018-06-13T07:40:17.908Z,14.91
2018-06-13T07:41:17.903Z,15.03
2018-06-13T07:42:17.894Z,15.04
2018-06-13T07:43:17.889Z,15.14
2018-06-13T07:44:17.883Z,15.07
2018-06-13T07:45:17.885Z,15.19
2018-06-13T07:46:17.875Z,15.25
2018-06-13T07:47:17.871Z,15.42
2018-06-13T07:49:17.861Z,15.64
2018-06-13T07:50:17.851Z,15.77
2018-06-13T07:51:17.848Z,15.76
2018-06-13T07:52:17.840Z,15.92
2018-06-13T07:53:17.835Z,15.88
2018-06-13T07:54:17.830Z,15.67
2018-06-13T07:55:17.896Z,15.55
2018-06-13T07:56:17.823Z,15.61
2018-06-13T07:57:17.819Z,15.51
2018-06-13T07:58:17.810Z,15.57
2018-06-13T07:59:17.805Z,15.57
2018-06-13T08:00:17.804Z,15.58
2018-06-13T08:01:17.799Z,15.75
2018-06-13T08:02:17.798Z,15.84
2018-06-13T08:03:17.786Z,15.94
2018-06-13T08:04:17.782Z,15.94
2018-06-13T08:05:17.778Z,16.02
2018-06-13T08:06:17.775Z,16.01
2018-06-13T08:07:17.770Z,16.05
2018-06-13T08:08:17.815Z,16.15
2018-06-13T08:09:17.760Z,16.12
2018-06-13T08:10:17.755Z,16.00
2018-06-13T08:11:17.755Z,16.02
2018-06-13T08:12:17.746Z,15.84
2018-06-13T08:13:17.746Z,15.79
2018-06-13T08:14:17.737Z,15.58
2018-06-13T08:15:17.732Z,15.55
2018-06-13T08:16:17.734Z,15.39
2018-06-13T08:17:17.729Z,15.29
2018-06-13T08:18:17.716Z,15.22
2018-06-13T08:19:17.712Z,15.07
2018-06-13T08:20:17.711Z,15.07
2018-06-13T08:21:17.704Z,15.00
2018-06-13T08:22:17.696Z,14.97
2018-06-13T08:23:17.691Z,15.06
2018-06-13T08:24:17.686Z,15.00
2018-06-13T08:25:17.686Z,15.07
2018-06-13T08:26:17.677Z,15.03
2018-06-13T08:27:17.673Z,15.00
2018-06-13T08:28:17.665Z,15.21
2018-06-13T08:29:17.661Z,15.22
2018-06-13T08:30:17.653Z,15.33
2018-06-13T08:31:17.651Z,15.39
2018-06-13T08:32:17.644Z,15.52
2018-06-13T08:33:17.641Z,15.94
2018-06-13T08:34:17.634Z,16.31
2018-06-13T08:35:17.632Z,16.50
2018-06-13T08:36:17.627Z,16.84
2018-06-13T08:37:17.670Z,16.93
2018-06-13T08:38:17.620Z,17.05
2018-06-13T08:39:17.617Z,17.26
2018-06-13T08:40:17.617Z,17.30
2018-06-13T08:41:17.615Z,17.49
2018-06-13T08:42:17.609Z,17.48
2018-06-13T08:43:17.609Z,17.57
2018-06-13T08:44:17.606Z,17.64
2018-06-13T08:45:17.604Z,17.65
2018-06-13T08:46:17.600Z,17.57
2018-06-13T08:47:17.806Z,17.33
2018-06-13T08:48:17.597Z,17.38
2018-06-13T08:49:17.597Z,17.29
2018-06-13T08:50:17.594Z,17.38
2018-06-13T08:51:17.593Z,17.30
2018-06-13T08:52:17.591Z,17.26
2018-06-13T08:53:17.586Z,17.19
2018-06-13T08:54:17.583Z,17.11
2018-06-13T08:55:17.588Z,17.20
2018-06-13T08:56:17.783Z,17.11
2018-06-13T08:57:17.576Z,17.05
2018-06-13T08:58:17.780Z,16.89
2018-06-13T08:59:17.571Z,16.94
2018-06-13T09:00:17.569Z,16.93
2018-06-13T09:01:17.571Z,16.96
2018-06-13T09:02:17.563Z,17.05
2018-06-13T09:03:17.608Z,17.08
2018-06-13T09:04:17.559Z,17.19
2018-06-13T09:05:17.557Z,17.16
2018-06-13T09:06:17.554Z,17.42
2018-06-13T09:07:17.554Z,17.46
2018-06-13T09:08:17.551Z,17.56
2018-06-13T09:09:17.549Z,17.57
2018-06-13T09:10:17.549Z,17.68
2018-06-13T09:11:17.547Z,17.68
2018-06-13T09:12:17.546Z,17.94
2018-06-13T09:13:17.545Z,18.05
2018-06-13T09:14:17.540Z,18.01
2018-06-13T09:15:17.544Z,18.08
2018-06-13T09:16:17.539Z,18.10
2018-06-13T09:17:17.542Z,18.19
2018-06-13T09:18:17.744Z,18.22
2018-06-13T09:19:17.543Z,17.98
2018-06-13T09:20:17.535Z,17.90
2018-06-13T09:21:17.534Z,17.92
2018-06-13T09:22:17.540Z,17.98
2018-06-13T09:23:17.537Z,17.95
2018-06-13T09:24:17.534Z,17.97
2018-06-13T09:25:17.535Z,17.94
2018-06-13T09:26:17.529Z,18.05
2018-06-13T09:27:17.528Z,18.23
2018-06-13T09:28:17.528Z,18.28
2018-06-13T09:29:17.532Z,18.26
2018-06-13T09:30:17.530Z,18.13
2018-06-13T09:31:17.540Z,18.22
2018-06-13T09:32:17.525Z,18.29
2018-06-13T09:33:17.524Z,18.34
2018-06-13T09:34:17.523Z,18.31
2018-06-13T09:35:17.526Z,18.31
2018-06-13T09:36:17.524Z,18.41
2018-06-13T09:37:17.584Z,18.40
2018-06-13T09:38:17.526Z,18.43
2018-06-13T09:39:17.526Z,18.40
2018-06-13T09:40:17.524Z,18.43
2018-06-13T09:41:17.521Z,18.28
2018-06-13T09:42:17.525Z,18.29
2018-06-13T09:43:17.519Z,18.29
2018-06-13T09:44:17.525Z,18.26
2018-06-13T09:45:17.519Z,18.13
2018-06-13T09:46:17.524Z,18.01
2018-06-13T09:47:23.457Z,17.89
2018-06-13T09:48:17.523Z,17.70
2018-06-13T09:49:17.518Z,17.22
2018-06-13T09:50:17.512Z,16.79
2018-06-13T09:51:17.513Z,16.41
2018-06-13T09:52:17.515Z,16.29
2018-06-13T09:53:17.505Z,16.23
2018-06-13T09:54:17.501Z,16.09
2018-06-13T09:55:17.503Z,15.91
2018-06-13T09:56:17.496Z,15.98
2018-06-13T09:57:17.493Z,16.17
2018-06-13T09:58:17.493Z,16.24
2018-06-13T09:59:17.486Z,16.36
2018-06-13T10:00:17.483Z,16.60
2018-06-13T10:01:17.486Z,16.78
2018-06-13T10:02:17.485Z,17.01
2018-06-13T10:03:17.477Z,17.05
2018-06-13T10:04:17.471Z,17.16
2018-06-13T10:05:17.468Z,17.20
2018-06-13T10:06:17.468Z,17.30
2018-06-13T10:07:17.670Z,17.30
2018-06-13T10:08:17.460Z,17.29
2018-06-13T10:09:17.460Z,17.34
2018-06-13T10:10:17.455Z,17.45
2018-06-13T10:11:17.526Z,17.67
2018-06-13T10:12:17.453Z,17.82
2018-06-13T10:13:17.451Z,17.94
2018-06-13T10:14:17.448Z,18.10
2018-06-13T10:15:17.447Z,18.25
2018-06-13T10:16:17.440Z,18.31
2018-06-13T10:17:17.438Z,18.44
2018-06-13T10:18:17.437Z,18.68
2018-06-13T10:19:17.435Z,18.75
2018-06-13T10:20:17.436Z,18.73
2018-06-13T10:21:17.433Z,18.74
2018-06-13T10:22:17.502Z,18.89
2018-06-13T10:23:17.633Z,18.84
2018-06-13T10:24:17.435Z,18.92
2018-06-13T10:25:17.435Z,18.96
2018-06-13T10:27:17.428Z,19.04
2018-06-13T10:28:17.430Z,19.14
2018-06-13T10:29:17.431Z,19.11
2018-06-13T10:30:17.432Z,19.14
2018-06-13T10:31:17.431Z,19.24
2018-06-13T10:32:17.429Z,19.29
2018-06-13T10:33:17.431Z,19.51
2018-06-13T10:34:17.451Z,19.51
2018-06-13T10:35:17.429Z,19.64
2018-06-13T10:36:17.432Z,19.66
2018-06-13T10:37:17.431Z,19.74
2018-06-13T10:38:17.431Z,19.91
2018-06-13T10:39:17.438Z,19.99
2018-06-13T10:40:17.437Z,19.99
2018-06-13T10:41:17.437Z,19.95
2018-06-13T10:42:17.438Z,20.00
2018-06-13T10:43:17.438Z,20.24
2018-06-13T10:44:17.440Z,20.40
2018-06-13T10:45:17.446Z,20.52
2018-06-13T10:46:17.446Z,20.51
2018-06-13T10:47:17.448Z,20.41
2018-06-13T10:48:17.448Z,20.50
2018-06-13T10:49:17.451Z,20.58
2018-06-13T10:50:17.457Z,20.66
2018-06-13T10:51:17.456Z,20.87
2018-06-13T10:52:17.459Z,20.87
2018-06-13T10:53:17.463Z,20.81
2018-06-13T10:54:17.464Z,20.56
2018-06-13T10:55:17.467Z,20.59
2018-06-13T10:56:17.474Z,20.59
2018-06-13T10:57:17.478Z,20.51
2018-06-13T10:58:17.478Z,20.48
2018-06-13T10:59:17.476Z,20.14
2018-06-13T11:00:17.483Z,20.00
2018-06-13T11:01:17.482Z,19.79
2018-06-13T11:02:17.485Z,19.49
2018-06-13T11:03:17.687Z,19.37
2018-06-13T11:04:17.487Z,18.75
2018-06-13T11:05:17.485Z,18.53
2018-06-13T11:06:17.483Z,18.50
2018-06-13T11:07:17.486Z,18.37
2018-06-13T11:08:17.483Z,18.43
2018-06-13T11:09:17.485Z,18.58
2018-06-13T11:10:17.489Z,18.63
2018-06-13T11:11:17.479Z,18.56
2018-06-13T11:12:17.478Z,18.34
2018-06-13T11:13:17.479Z,18.25
2018-06-13T11:14:17.475Z,18.11
2018-06-13T11:15:17.476Z,18.13
2018-06-13T11:16:17.473Z,18.07
2018-06-13T11:17:17.471Z,18.05
2018-06-13T11:18:17.474Z,18.07
2018-06-13T11:19:17.467Z,18.04
2018-06-13T11:20:17.500Z,18.07
2018-06-13T11:21:17.463Z,18.05
2018-06-13T11:22:17.460Z,18.03
2018-06-13T11:23:17.458Z,18.10
2018-06-13T11:24:17.458Z,18.26
2018-06-13T11:25:17.455Z,18.37
2018-06-13T11:26:17.451Z,18.43
2018-06-13T11:27:17.450Z,18.55
2018-06-13T11:28:17.447Z,18.60
2018-06-13T11:29:17.447Z,18.55
2018-06-13T11:30:17.443Z,18.52
2018-06-13T11:31:17.648Z,18.47
2018-06-13T11:32:17.440Z,18.31
2018-06-13T11:33:17.437Z,18.18
2018-06-13T11:34:17.435Z,18.07
2018-06-13T11:35:17.431Z,17.94
2018-06-13T11:36:17.428Z,18.00
2018-06-13T11:37:17.429Z,17.94
2018-06-13T11:38:17.424Z,17.89
2018-06-13T11:39:17.420Z,17.83
2018-06-13T11:40:17.420Z,17.68
2018-06-13T11:41:17.415Z,17.63
2018-06-13T11:42:17.416Z,17.54
2018-06-13T11:43:17.410Z,17.41
2018-06-13T11:44:17.407Z,17.30
2018-06-13T11:45:17.405Z,17.23
2018-06-13T11:46:17.401Z,17.24
2018-06-13T11:47:17.393Z,17.15
2018-06-13T11:48:17.390Z,17.11
2018-06-13T11:49:17.386Z,17.08
2018-06-13T11:50:17.382Z,17.02
2018-06-13T11:51:17.414Z,17.11
2018-06-13T11:52:17.374Z,17.12
2018-06-13T11:53:17.372Z,17.12
2018-06-13T11:54:17.365Z,17.06
2018-06-13T11:55:17.365Z,17.11
2018-06-13T11:56:17.360Z,17.16
2018-06-13T11:57:17.354Z,17.16
2018-06-13T11:58:17.352Z,17.30
2018-06-13T11:59:17.346Z,17.34
2018-06-13T12:00:17.370Z,17.41
2018-06-13T12:01:17.340Z,17.38
2018-06-13T12:02:17.335Z,17.56
2018-06-13T12:03:17.329Z,17.52
2018-06-13T12:04:17.326Z,17.63
2018-06-13T12:05:17.326Z,17.63
2018-06-13T12:06:17.520Z,17.76
2018-06-13T12:07:17.321Z,17.90
2018-06-13T12:08:17.313Z,18.08
2018-06-13T12:09:17.309Z,18.11
2018-06-13T12:10:17.303Z,18.23
2018-06-13T12:11:17.305Z,18.35
2018-06-13T12:12:17.297Z,18.47
2018-06-13T12:13:17.294Z,18.50
2018-06-13T12:14:17.298Z,18.73
2018-06-13T12:15:17.288Z,18.78
2018-06-13T12:16:17.290Z,18.89
2018-06-13T12:17:17.284Z,18.95
2018-06-13T12:18:17.282Z,19.00
2018-06-13T12:19:17.282Z,18.92
2018-06-13T12:21:17.286Z,18.96
2018-06-13T12:22:17.274Z,18.83
2018-06-13T12:23:17.272Z,18.73
2018-06-13T12:24:17.280Z,18.55
2018-06-13T12:25:17.267Z,18.60
2018-06-13T12:26:17.266Z,18.75
2018-06-13T12:27:17.261Z,18.84
2018-06-13T12:28:17.259Z,18.96
2018-06-13T12:29:17.257Z,18.88
2018-06-13T12:30:17.255Z,18.86
2018-06-13T12:31:17.255Z,18.86
2018-06-13T12:32:17.253Z,18.96
2018-06-13T12:33:17.252Z,19.14
2018-06-13T12:34:17.292Z,19.33
2018-06-13T12:35:17.248Z,19.44
2018-06-13T12:36:17.245Z,19.31
2018-06-13T12:37:17.251Z,19.29
2018-06-13T12:38:17.252Z,19.18
2018-06-13T12:39:17.240Z,18.99
2018-06-13T12:40:17.244Z,18.99
2018-06-13T12:41:17.242Z,18.92
2018-06-13T12:42:17.239Z,18.92
2018-06-13T12:43:17.234Z,18.90
2018-06-13T12:44:17.239Z,18.86
2018-06-13T12:45:17.230Z,18.78
2018-06-13T12:46:17.228Z,18.83
2018-06-13T12:47:17.227Z,18.73
2018-06-13T12:48:17.233Z,18.56
2018-06-13T12:49:17.223Z,18.58
2018-06-13T12:50:17.220Z,18.43
2018-06-13T12:51:17.220Z,18.33
2018-06-13T12:52:17.223Z,18.20
2018-06-13T12:53:17.222Z,18.16
2018-06-13T12:54:17.214Z,18.00
2018-06-13T12:55:17.209Z,18.11
2018-06-13T12:56:17.205Z,17.98
2018-06-13T12:57:17.203Z,17.79
2018-06-13T12:58:17.199Z,17.67
2018-06-13T12:59:17.231Z,17.64